createdAt,value
2022-08-14T00:02:15.374Z,90.40
2022-08-14T00:04:45.029Z,90.80
2022-08-14T00:07:13.767Z,91.00
2022-08-14T00:09:55.731Z,91.50
2022-08-14T00:12:33.031Z,91.80
2022-08-14T00:15:02.929Z,92.40
2022-08-14T00:17:30.256Z,93.00
2022-08-14T00:20:02.126Z,93.30
2022-08-14T00:22:56.429Z,93.70
2022-08-14T00:25:17.641Z,94.20
2022-08-14T00:27:45.551Z,95.10
2022-08-14T00:30:17.441Z,95.30
2022-08-14T00:32:52.939Z,95.80
2022-08-14T00:35:32.485Z,96.20
2022-08-14T00:38:11.529Z,96.70
2022-08-14T00:40:39.227Z,97.10
2022-08-14T00:43:14.939Z,97.60
2022-08-14T00:45:43.217Z,98.20
2022-08-14T00:48:34.491Z,98.60
2022-08-14T00:51:09.010Z,99.10
2022-08-14T00:53:38.457Z,99.50
2022-08-14T00:56:08.605Z,99.90
2022-08-14T00:58:45.248Z,99.90
2022-08-14T01:01:18.831Z,99.90
2022-08-14T01:03:46.257Z,99.90
2022-08-14T01:06:20.044Z,99.90
2022-08-14T01:08:57.921Z,99.90
2022-08-14T01:11:31.721Z,99.90
2022-08-14T01:14:05.083Z,99.90
2022-08-14T01:16:52.988Z,99.90
2022-08-14T01:19:39.281Z,99.90
2022-08-14T01:22:12.781Z,99.90
2022-08-14T01:24:43.365Z,99.90
2022-08-14T01:27:24.437Z,99.90
2022-08-14T01:30:03.180Z,99.90
2022-08-14T01:32:37.610Z,99.90
2022-08-14T01:35:17.243Z,99.90
2022-08-14T01:37:58.868Z,99.90
2022-08-14T01:40:36.750Z,99.90
2022-08-14T01:43:14.848Z,99.90
2022-08-14T01:45:48.960Z,99.90
2022-08-14T01:48:25.894Z,99.90
2022-08-14T01:50:53.991Z,99.90
2022-08-14T01:53:22.748Z,99.90
2022-08-14T01:55:51.818Z,99.90
2022-08-14T01:58:28.510Z,99.90
2022-08-14T02:00:57.154Z,99.90
2022-08-14T02:03:30.251Z,99.90
2022-08-14T02:06:04.092Z,99.90
2022-08-14T02:08:53.187Z,99.90
2022-08-14T02:11:24.691Z,99.90
2022-08-14T02:13:54.508Z,99.90
2022-08-14T02:16:26.362Z,99.90
2022-08-14T02:18:56.265Z,99.90
2022-08-14T02:21:27.593Z,99.90
2022-08-14T02:23:55.748Z,99.90
2022-08-14T02:26:30.625Z,99.90
2022-08-14T02:29:03.558Z,99.90
2022-08-14T02:31:42.560Z,99.90
2022-08-14T02:34:20.142Z,99.90
2022-08-14T02:37:04.109Z,99.90
2022-08-14T02:39:36.989Z,99.90
2022-08-14T02:42:06.174Z,99.90
2022-08-14T02:44:39.513Z,99.90
2022-08-14T02:47:14.971Z,99.90
2022-08-14T02:49:46.420Z,99.90
2022-08-14T02:52:55.277Z,99.90
2022-08-14T02:55:09.741Z,99.90
2022-08-14T02:57:40.413Z,99.90
2022-08-14T03:00:10.680Z,99.90
2022-08-14T03:02:56.027Z,99.90
2022-08-14T03:05:30.636Z,99.90
2022-08-14T03:08:09.094Z,99.90
2022-08-14T03:10:41.731Z,99.90
2022-08-14T03:13:19.173Z,99.90
2022-08-14T03:15:48.549Z,99.90
2022-08-14T03:18:31.810Z,99.90
2022-08-14T03:21:04.318Z,99.90
2022-08-14T03:23:37.945Z,99.90
2022-08-14T03:26:13.191Z,99.90
2022-08-14T03:28:51.257Z,99.90
2022-08-14T03:31:26.032Z,99.90
2022-08-14T03:33:56.486Z,99.90
2022-08-14T03:37:37.937Z,99.90
2022-08-14T03:39:22.588Z,99.90
2022-08-14T03:41:56.348Z,99.90
2022-08-14T03:45:18.933Z,99.90
2022-08-14T03:47:16.057Z,99.90
2022-08-14T03:49:46.069Z,99.90
2022-08-14T03:52:37.856Z,99.90
2022-08-14T03:55:09.016Z,99.90
2022-08-14T03:57:37.553Z,99.90
2022-08-14T04:00:13.461Z,99.90
2022-08-14T04:02:55.014Z,99.90
2022-08-14T04:05:22.376Z,99.90
2022-08-14T04:08:08.380Z,99.90
2022-08-14T04:10:39.966Z,99.90
2022-08-14T04:13:07.621Z,99.90
2022-08-14T04:15:56.229Z,99.90
2022-08-14T04:18:23.584Z,99.90
2022-08-14T04:20:54.555Z,99.90
2022-08-14T04:23:32.727Z,99.90
2022-08-14T04:26:08.201Z,99.90
2022-08-14T04:29:02.226Z,99.90
2022-08-14T04:32:58.926Z,99.90
2022-08-14T04:34:17.129Z,99.90
2022-08-14T04:37:07.347Z,99.90
2022-08-14T04:39:56.899Z,99.90
2022-08-14T04:42:47.477Z,99.90
2022-08-14T04:45:21.860Z,99.90
2022-08-14T04:48:10.169Z,99.90
2022-08-14T04:50:44.534Z,99.90
2022-08-14T04:53:17.383Z,99.90
2022-08-14T04:55:51.763Z,99.90
2022-08-14T04:58:32.950Z,99.90
2022-08-14T05:01:03.912Z,99.90
2022-08-14T05:03:32.715Z,99.90
2022-08-14T05:06:03.243Z,99.90
2022-08-14T05:08:50.723Z,99.90
2022-08-14T05:11:20.122Z,99.90
2022-08-14T05:16:34.366Z,99.90
2022-08-14T05:19:18.244Z,99.90
2022-08-14T05:21:59.585Z,99.90
2022-08-14T05:24:29.043Z,99.90
2022-08-14T05:26:56.309Z,99.90
2022-08-14T05:29:23.862Z,99.90
2022-08-14T05:31:57.252Z,99.90
2022-08-14T05:34:28.932Z,99.90
2022-08-14T05:37:02.881Z,99.90
2022-08-14T05:39:31.261Z,99.90
2022-08-14T05:42:00.608Z,99.90
2022-08-14T05:44:30.685Z,99.90
2022-08-14T05:46:58.993Z,99.90
2022-08-14T05:49:33.741Z,99.90
2022-08-14T05:52:04.440Z,99.90
2022-08-14T05:54:37.441Z,99.90
2022-08-14T05:57:05.083Z,99.90
2022-08-14T05:59:38.848Z,99.90
2022-08-14T06:02:10.154Z,99.90
2022-08-14T06:04:38.186Z,99.90
2022-08-14T06:07:05.844Z,99.90
2022-08-14T06:09:35.745Z,99.90
2022-08-14T06:12:11.929Z,99.90
2022-08-14T06:14:39.471Z,99.90
2022-08-14T06:17:06.921Z,99.90
2022-08-14T06:19:34.086Z,99.90
2022-08-14T06:22:02.143Z,99.90
2022-08-14T06:24:30.694Z,99.90
2022-08-14T06:27:06.374Z,99.90
2022-08-14T06:29:38.112Z,99.90
2022-08-14T06:32:36.862Z,99.90
2022-08-14T06:35:11.479Z,99.90
2022-08-14T06:37:52.010Z,99.90
2022-08-14T06:40:28.438Z,99.90
2022-08-14T06:43:00.312Z,99.90
2022-08-14T06:45:42.077Z,99.90
2022-08-14T06:48:17.792Z,99.90
2022-08-14T06:50:46.698Z,99.90
2022-08-14T06:53:14.852Z,99.90
2022-08-14T06:55:58.519Z,99.90
2022-08-14T06:58:31.346Z,99.90
2022-08-14T07:01:25.030Z,99.90
2022-08-14T07:04:22.928Z,99.90
2022-08-14T07:06:52.054Z,99.90
2022-08-14T07:09:24.851Z,99.90
2022-08-14T07:11:56.391Z,99.90
2022-08-14T07:14:25.067Z,99.90
2022-08-14T07:16:53.688Z,99.90
2022-08-14T07:19:21.191Z,99.90
2022-08-14T07:21:48.602Z,99.90
2022-08-14T07:24:22.115Z,99.90
2022-08-14T07:26:58.344Z,99.30
2022-08-14T07:29:28.991Z,99.90
2022-08-14T07:31:56.142Z,99.60
2022-08-14T07:34:26.374Z,99.90
2022-08-14T07:37:05.942Z,99.90
2022-08-14T07:39:34.289Z,99.90
2022-08-14T07:42:01.827Z,99.30
2022-08-14T07:44:35.773Z,98.80
2022-08-14T07:47:16.668Z,99.50
2022-08-14T07:49:55.443Z,99.50
2022-08-14T07:52:31.098Z,99.90
2022-08-14T07:55:00.289Z,99.70
2022-08-14T07:57:28.680Z,99.90
2022-08-14T07:59:55.744Z,99.90
2022-08-14T08:02:24.042Z,99.10
2022-08-14T08:04:59.239Z,99.10
2022-08-14T08:07:32.141Z,99.30
2022-08-14T08:10:46.320Z,98.80
2022-08-14T08:13:16.963Z,99.90
2022-08-14T08:15:51.989Z,98.80
2022-08-14T08:18:20.372Z,98.70
2022-08-14T08:20:55.324Z,97.80
2022-08-14T08:23:34.411Z,98.40
2022-08-14T08:26:07.329Z,97.90
2022-08-14T08:28:34.472Z,97.40
2022-08-14T08:31:03.833Z,98.10
2022-08-14T08:33:36.858Z,98.50
2022-08-14T08:36:12.981Z,97.80
2022-08-14T08:39:17.976Z,98.50
2022-08-14T08:41:41.655Z,98.10
2022-08-14T08:44:30.060Z,97.90
2022-08-14T08:47:00.126Z,97.60
2022-08-14T08:49:52.801Z,98.20
2022-08-14T08:52:31.771Z,97.90
2022-08-14T08:55:00.845Z,98.10
2022-08-14T08:57:36.072Z,98.20
2022-08-14T09:00:24.518Z,97.90
2022-08-14T09:02:57.605Z,98.00
2022-08-14T09:05:26.129Z,97.60
2022-08-14T09:07:56.416Z,97.90
2022-08-14T09:10:23.973Z,97.30
2022-08-14T09:12:56.497Z,97.20
2022-08-14T09:15:24.200Z,96.10
2022-08-14T09:17:52.339Z,95.90
2022-08-14T09:20:26.454Z,95.40
2022-08-14T09:22:58.440Z,95.90
2022-08-14T09:25:58.731Z,95.50
2022-08-14T09:28:14.501Z,96.00
2022-08-14T09:31:00.894Z,95.70
2022-08-14T09:34:19.688Z,95.70
2022-08-14T09:37:31.887Z,95.40
2022-08-14T09:40:21.021Z,95.10
2022-08-14T09:42:55.045Z,95.00
2022-08-14T09:45:24.700Z,94.80
2022-08-14T09:47:57.889Z,94.10
2022-08-14T09:50:32.022Z,94.30
2022-08-14T09:53:03.758Z,94.30
2022-08-14T09:55:42.321Z,93.20
2022-08-14T09:58:22.550Z,92.90
2022-08-14T10:00:54.802Z,93.00
2022-08-14T10:03:36.436Z,91.70
2022-08-14T10:06:19.482Z,91.90
2022-08-14T10:09:16.888Z,91.70
2022-08-14T10:11:55.205Z,92.30
2022-08-14T10:14:35.849Z,91.90
2022-08-14T10:17:07.086Z,91.60
2022-08-14T10:19:47.080Z,92.30
2022-08-14T10:23:15.574Z,91.90
2022-08-14T10:25:39.657Z,90.00
2022-08-14T10:28:39.506Z,90.60
2022-08-14T10:30:57.551Z,90.30
2022-08-14T10:34:13.209Z,90.20
2022-08-14T10:37:14.431Z,89.90
2022-08-14T10:40:01.387Z,88.30
2022-08-14T10:42:39.722Z,88.20
2022-08-14T10:45:35.741Z,88.40
2022-08-14T10:48:34.521Z,88.00
2022-08-14T10:51:04.844Z,87.10
